sensor_id;sensor_type;location;lat;lon;timestamp;P1;durP1;ratioP1;P2;durP2;ratioP2
77430;SDS011;66498;48.564;19.272;2023-06-10T00:02:04;9.57;;;5.70;;
77430;SDS011;66498;48.564;19.272;2023-06-10T00:04:29;12.40;;;6.18;;
77430;SDS011;66498;48.564;19.272;2023-06-10T00:06:55;15.13;;;6.47;;
77430;SDS011;66498;48.564;19.272;2023-06-10T00:09:22;18.23;;;6.28;;
77430;SDS011;66498;48.564;19.272;2023-06-10T00:11:48;11.88;;;6.35;;
77430;SDS011;66498;48.564;19.272;2023-06-10T00:14:13;13.27;;;6.40;;
77430;SDS011;66498;48.564;19.272;2023-06-10T00:16:39;18.02;;;6.88;;
77430;SDS011;66498;48.564;19.272;2023-06-10T00:19:05;15.63;;;7.10;;
77430;SDS011;66498;48.564;19.272;2023-06-10T00:21:33;14.68;;;6.72;;
77430;SDS011;66498;48.564;19.272;2023-06-10T00:24:05;13.23;;;6.90;;
77430;SDS011;66498;48.564;19.272;2023-06-10T00:26:31;14.23;;;6.72;;
77430;SDS011;66498;48.564;19.272;2023-06-10T00:28:57;14.18;;;7.10;;
77430;SDS011;66498;48.564;19.272;2023-06-10T00:31:23;16.15;;;7.13;;
77430;SDS011;66498;48.564;19.272;2023-06-10T00:33:48;19.50;;;7.45;;
77430;SDS011;66498;48.564;19.272;2023-06-10T00:36:14;15.80;;;7.07;;
77430;SDS011;66498;48.564;19.272;2023-06-10T00:38:43;17.52;;;6.95;;
77430;SDS011;66498;48.564;19.272;2023-06-10T00:41:08;18.83;;;7.03;;
77430;SDS011;66498;48.564;19.272;2023-06-10T00:43:34;15.15;;;7.30;;
77430;SDS011;66498;48.564;19.272;2023-06-10T00:45:59;18.27;;;7.70;;
77430;SDS011;66498;48.564;19.272;2023-06-10T00:48:25;23.85;;;8.43;;
77430;SDS011;66498;48.564;19.272;2023-06-10T00:50:51;21.80;;;8.75;;
77430;SDS011;66498;48.564;19.272;2023-06-10T00:53:17;17.70;;;7.75;;
77430;SDS011;66498;48.564;19.272;2023-06-10T00:55:43;21.02;;;7.95;;
77430;SDS011;66498;48.564;19.272;2023-06-10T00:58:09;22.55;;;7.70;;
77430;SDS011;66498;48.564;19.272;2023-06-10T01:00:35;18.27;;;8.27;;
77430;SDS011;66498;48.564;19.272;2023-06-10T01:03:01;19.90;;;9.10;;
77430;SDS011;66498;48.564;19.272;2023-06-10T01:05:27;17.00;;;8.95;;
77430;SDS011;66498;48.564;19.272;2023-06-10T01:10:53;16.13;;;8.45;;
77430;SDS011;66498;48.564;19.272;2023-06-10T01:13:23;17.60;;;9.15;;
77430;SDS011;66498;48.564;19.272;2023-06-10T01:15:53;15.68;;;9.02;;
77430;SDS011;66498;48.564;19.272;2023-06-10T01:18:20;16.58;;;9.20;;
77430;SDS011;66498;48.564;19.272;2023-06-10T01:20:46;20.52;;;9.70;;
77430;SDS011;66498;48.564;19.272;2023-06-10T01:23:13;17.33;;;9.57;;
77430;SDS011;66498;48.564;19.272;2023-06-10T01:25:41;18.35;;;10.00;;
77430;SDS011;66498;48.564;19.272;2023-06-10T01:28:15;21.58;;;10.63;;
77430;SDS011;66498;48.564;19.272;2023-06-10T01:33:35;22.70;;;10.38;;
77430;SDS011;66498;48.564;19.272;2023-06-10T01:36:03;18.77;;;8.95;;
77430;SDS011;66498;48.564;19.272;2023-06-10T01:38:36;14.73;;;8.68;;
77430;SDS011;66498;48.564;19.272;2023-06-10T01:41:08;13.43;;;7.57;;
77430;SDS011;66498;48.564;19.272;2023-06-10T01:43:34;13.43;;;8.38;;
77430;SDS011;66498;48.564;19.272;2023-06-10T01:46:03;13.88;;;8.48;;
77430;SDS011;66498;48.564;19.272;2023-06-10T01:51:04;12.93;;;8.13;;
77430;SDS011;66498;48.564;19.272;2023-06-10T01:53:38;10.20;;;7.32;;
77430;SDS011;66498;48.564;19.272;2023-06-10T01:56:29;13.20;;;7.85;;
77430;SDS011;66498;48.564;19.272;2023-06-10T01:59:20;14.45;;;7.60;;
77430;SDS011;66498;48.564;19.272;2023-06-10T02:02:11;11.35;;;7.85;;
77430;SDS011;66498;48.564;19.272;2023-06-10T02:04:43;15.07;;;7.32;;
77430;SDS011;66498;48.564;19.272;2023-06-10T02:07:16;12.23;;;7.57;;
77430;SDS011;66498;48.564;19.272;2023-06-10T02:10:30;9.30;;;6.68;;
77430;SDS011;66498;48.564;19.272;2023-06-10T02:13:33;9.60;;;6.68;;
77430;SDS011;66498;48.564;19.272;2023-06-10T02:16:01;11.90;;;6.80;;
77430;SDS011;66498;48.564;19.272;2023-06-10T02:18:27;13.13;;;7.32;;
77430;SDS011;66498;48.564;19.272;2023-06-10T02:20:53;12.52;;;7.55;;
77430;SDS011;66498;48.564;19.272;2023-06-10T02:23:20;12.98;;;7.30;;
77430;SDS011;66498;48.564;19.272;2023-06-10T02:25:46;9.18;;;5.93;;
77430;SDS011;66498;48.564;19.272;2023-06-10T02:31:37;17.38;;;7.55;;
77430;SDS011;66498;48.564;19.272;2023-06-10T02:34:02;20.65;;;8.18;;
77430;SDS011;66498;48.564;19.272;2023-06-10T02:36:29;17.88;;;8.10;;
77430;SDS011;66498;48.564;19.272;2023-06-10T02:38:56;28.00;;;9.55;;
77430;SDS011;66498;48.564;19.272;2023-06-10T02:41:22;29.45;;;11.25;;
77430;SDS011;66498;48.564;19.272;2023-06-10T02:48:13;36.03;;;12.43;;
77430;SDS011;66498;48.564;19.272;2023-06-10T02:54:32;46.75;;;9.77;;
77430;SDS011;66498;48.564;19.272;2023-06-10T02:57:15;57.42;;;10.25;;
77430;SDS011;66498;48.564;19.272;2023-06-10T02:59:43;44.17;;;9.27;;
77430;SDS011;66498;48.564;19.272;2023-06-10T03:02:09;62.63;;;11.10;;
77430;SDS011;66498;48.564;19.272;2023-06-10T03:04:37;66.95;;;10.82;;
77430;SDS011;66498;48.564;19.272;2023-06-10T03:07:03;47.63;;;11.30;;
77430;SDS011;66498;48.564;19.272;2023-06-10T03:12:37;61.10;;;14.38;;
77430;SDS011;66498;48.564;19.272;2023-06-10T03:17:54;58.75;;;14.15;;
77430;SDS011;66498;48.564;19.272;2023-06-10T03:20:20;42.53;;;14.55;;
77430;SDS011;66498;48.564;19.272;2023-06-10T03:22:46;73.00;;;12.88;;
77430;SDS011;66498;48.564;19.272;2023-06-10T03:25:12;29.15;;;12.82;;
77430;SDS011;66498;48.564;19.272;2023-06-10T03:27:42;41.65;;;13.80;;
77430;SDS011;66498;48.564;19.272;2023-06-10T03:30:07;35.75;;;13.45;;
77430;SDS011;66498;48.564;19.272;2023-06-10T03:32:33;32.67;;;13.25;;
77430;SDS011;66498;48.564;19.272;2023-06-10T03:35:00;34.80;;;12.48;;
77430;SDS011;66498;48.564;19.272;2023-06-10T03:37:29;23.98;;;10.95;;
77430;SDS011;66498;48.564;19.272;2023-06-10T03:40:12;17.95;;;10.02;;
77430;SDS011;66498;48.564;19.272;2023-06-10T03:42:41;17.35;;;10.48;;
77430;SDS011;66498;48.564;19.272;2023-06-10T03:45:09;22.42;;;11.27;;
77430;SDS011;66498;48.564;19.272;2023-06-10T03:47:35;21.75;;;10.88;;
77430;SDS011;66498;48.564;19.272;2023-06-10T03:50:02;23.67;;;13.57;;
77430;SDS011;66498;48.564;19.272;2023-06-10T03:52:29;25.30;;;13.55;;
77430;SDS011;66498;48.564;19.272;2023-06-10T03:54:54;21.38;;;13.00;;
77430;SDS011;66498;48.564;19.272;2023-06-10T03:57:20;25.60;;;13.50;;
77430;SDS011;66498;48.564;19.272;2023-06-10T03:59:45;24.67;;;14.80;;
77430;SDS011;66498;48.564;19.272;2023-06-10T04:02:11;28.10;;;15.65;;
77430;SDS011;66498;48.564;19.272;2023-06-10T04:04:36;24.98;;;16.35;;
77430;SDS011;66498;48.564;19.272;2023-06-10T04:07:03;21.80;;;14.35;;
77430;SDS011;66498;48.564;19.272;2023-06-10T04:09:30;19.75;;;13.93;;
77430;SDS011;66498;48.564;19.272;2023-06-10T04:11:55;18.65;;;13.20;;
77430;SDS011;66498;48.564;19.272;2023-06-10T04:14:21;20.58;;;13.73;;
77430;SDS011;66498;48.564;19.272;2023-06-10T04:16:46;22.63;;;12.65;;
77430;SDS011;66498;48.564;19.272;2023-06-10T04:19:11;22.73;;;13.13;;
77430;SDS011;66498;48.564;19.272;2023-06-10T04:21:37;19.15;;;13.57;;
77430;SDS011;66498;48.564;19.272;2023-06-10T04:24:02;20.17;;;13.32;;
77430;SDS011;66498;48.564;19.272;2023-06-10T04:26:28;22.27;;;13.95;;
77430;SDS011;66498;48.564;19.272;2023-06-10T04:28:54;18.80;;;13.43;;
77430;SDS011;66498;48.564;19.272;2023-06-10T04:31:19;19.63;;;13.45;;
77430;SDS011;66498;48.564;19.272;2023-06-10T04:33:45;17.77;;;13.60;;
77430;SDS011;66498;48.564;19.272;2023-06-10T04:36:11;17.08;;;13.80;;
77430;SDS011;66498;48.564;19.272;2023-06-10T04:38:36;18.88;;;14.52;;
77430;SDS011;66498;48.564;19.272;2023-06-10T04:41:02;18.13;;;13.75;;
77430;SDS011;66498;48.564;19.272;2023-06-10T04:43:27;18.38;;;13.55;;
77430;SDS011;66498;48.564;19.272;2023-06-10T04:45:56;19.52;;;14.20;;
77430;SDS011;66498;48.564;19.272;2023-06-10T04:48:21;18.33;;;13.75;;
77430;SDS011;66498;48.564;19.272;2023-06-10T04:50:48;19.65;;;13.88;;
77430;SDS011;66498;48.564;19.272;2023-06-10T04:53:15;16.13;;;14.10;;
77430;SDS011;66498;48.564;19.272;2023-06-10T04:55:41;18.10;;;14.98;;
77430;SDS011;66498;48.564;19.272;2023-06-10T04:58:09;18.20;;;14.60;;
77430;SDS011;66498;48.564;19.272;2023-06-10T05:00:34;18.15;;;14.75;;
77430;SDS011;66498;48.564;19.272;2023-06-10T05:03:00;17.63;;;13.93;;
77430;SDS011;66498;48.564;19.272;2023-06-10T05:05:26;17.45;;;14.85;;
77430;SDS011;66498;48.564;19.272;2023-06-10T05:07:51;18.63;;;15.30;;
77430;SDS011;66498;48.564;19.272;2023-06-10T05:10:17;15.70;;;12.57;;
77430;SDS011;66498;48.564;19.272;2023-06-10T05:12:42;17.42;;;13.88;;
77430;SDS011;66498;48.564;19.272;2023-06-10T05:15:08;15.90;;;12.63;;
77430;SDS011;66498;48.564;19.272;2023-06-10T05:17:34;15.30;;;12.70;;
77430;SDS011;66498;48.564;19.272;2023-06-10T05:20:00;15.48;;;12.25;;
77430;SDS011;66498;48.564;19.272;2023-06-10T05:22:27;16.85;;;12.68;;
77430;SDS011;66498;48.564;19.272;2023-06-10T05:24:53;16.77;;;12.85;;
77430;SDS011;66498;48.564;19.272;2023-06-10T05:27:21;18.02;;;12.93;;
77430;SDS011;66498;48.564;19.272;2023-06-10T05:29:47;15.85;;;12.18;;
77430;SDS011;66498;48.564;19.272;2023-06-10T05:32:13;15.70;;;12.48;;
77430;SDS011;66498;48.564;19.272;2023-06-10T05:34:39;15.15;;;11.57;;
77430;SDS011;66498;48.564;19.272;2023-06-10T05:37:04;15.32;;;12.02;;
77430;SDS011;66498;48.564;19.272;2023-06-10T05:39:30;16.30;;;12.38;;
77430;SDS011;66498;48.564;19.272;2023-06-10T05:41:55;17.23;;;12.93;;
77430;SDS011;66498;48.564;19.272;2023-06-10T05:44:24;14.63;;;12.27;;
77430;SDS011;66498;48.564;19.272;2023-06-10T05:46:50;14.65;;;13.02;;
77430;SDS011;66498;48.564;19.272;2023-06-10T05:49:16;14.02;;;12.00;;
77430;SDS011;66498;48.564;19.272;2023-06-10T05:51:41;12.98;;;10.98;;
77430;SDS011;66498;48.564;19.272;2023-06-10T05:54:07;15.23;;;11.18;;
77430;SDS011;66498;48.564;19.272;2023-06-10T05:56:32;13.38;;;10.90;;
77430;SDS011;66498;48.564;19.272;2023-06-10T05:58:58;12.73;;;11.32;;
77430;SDS011;66498;48.564;19.272;2023-06-10T06:01:24;13.05;;;10.50;;
77430;SDS011;66498;48.564;19.272;2023-06-10T06:03:52;11.85;;;10.48;;
77430;SDS011;66498;48.564;19.272;2023-06-10T06:06:17;14.05;;;11.38;;
77430;SDS011;66498;48.564;19.272;2023-06-10T06:08:45;14.77;;;11.38;;
77430;SDS011;66498;48.564;19.272;2023-06-10T06:11:11;13.40;;;11.80;;
77430;SDS011;66498;48.564;19.272;2023-06-10T06:13:36;12.63;;;11.25;;
77430;SDS011;66498;48.564;19.272;2023-06-10T06:16:02;16.38;;;12.45;;
77430;SDS011;66498;48.564;19.272;2023-06-10T06:18:28;14.30;;;12.80;;
77430;SDS011;66498;48.564;19.272;2023-06-10T06:20:54;17.65;;;13.63;;
77430;SDS011;66498;48.564;19.272;2023-06-10T06:23:19;17.35;;;13.05;;
77430;SDS011;66498;48.564;19.272;2023-06-10T06:25:45;14.68;;;13.10;;
77430;SDS011;66498;48.564;19.272;2023-06-10T06:28:11;13.70;;;12.30;;
77430;SDS011;66498;48.564;19.272;2023-06-10T06:30:37;12.30;;;11.00;;
77430;SDS011;66498;48.564;19.272;2023-06-10T06:33:02;14.18;;;12.68;;
77430;SDS011;66498;48.564;19.272;2023-06-10T06:35:30;15.43;;;12.10;;
77430;SDS011;66498;48.564;19.272;2023-06-10T06:37:57;13.13;;;11.75;;
77430;SDS011;66498;48.564;19.272;2023-06-10T06:40:24;14.30;;;11.85;;
77430;SDS011;66498;48.564;19.272;2023-06-10T06:42:49;14.02;;;11.60;;
77430;SDS011;66498;48.564;19.272;2023-06-10T06:45:15;12.95;;;10.95;;
77430;SDS011;66498;48.564;19.272;2023-06-10T06:47:40;12.25;;;10.88;;
77430;SDS011;66498;48.564;19.272;2023-06-10T06:50:06;16.00;;;12.13;;
77430;SDS011;66498;48.564;19.272;2023-06-10T06:52:32;12.45;;;11.15;;
77430;SDS011;66498;48.564;19.272;2023-06-10T06:54:58;12.30;;;10.90;;
77430;SDS011;66498;48.564;19.272;2023-06-10T06:57:24;15.13;;;11.65;;
77430;SDS011;66498;48.564;19.272;2023-06-10T06:59:49;12.63;;;11.18;;
77430;SDS011;66498;48.564;19.272;2023-06-10T07:02:15;12.43;;;10.98;;
77430;SDS011;66498;48.564;19.272;2023-06-10T07:04:43;13.43;;;10.48;;
77430;SDS011;66498;48.564;19.272;2023-06-10T07:07:11;12.32;;;10.77;;
77430;SDS011;66498;48.564;19.272;2023-06-10T07:09:37;13.10;;;10.60;;
77430;SDS011;66498;48.564;19.272;2023-06-10T07:12:03;11.18;;;10.07;;
77430;SDS011;66498;48.564;19.272;2023-06-10T07:14:29;10.52;;;8.98;;
77430;SDS011;66498;48.564;19.272;2023-06-10T07:16:55;10.10;;;8.65;;
77430;SDS011;66498;48.564;19.272;2023-06-10T07:19:21;9.18;;;8.25;;
77430;SDS011;66498;48.564;19.272;2023-06-10T07:21:47;8.38;;;7.47;;
77430;SDS011;66498;48.564;19.272;2023-06-10T07:24:13;8.77;;;7.88;;
77430;SDS011;66498;48.564;19.272;2023-06-10T07:26:38;10.23;;;8.55;;
77430;SDS011;66498;48.564;19.272;2023-06-10T07:29:04;9.25;;;8.25;;
77430;SDS011;66498;48.564;19.272;2023-06-10T07:31:30;8.50;;;7.60;;
77430;SDS011;66498;48.564;19.272;2023-06-10T07:33:56;9.15;;;8.20;;
77430;SDS011;66498;48.564;19.272;2023-06-10T07:36:22;11.52;;;7.25;;
77430;SDS011;66498;48.564;19.272;2023-06-10T07:38:48;8.60;;;7.72;;
77430;SDS011;66498;48.564;19.272;2023-06-10T07:41:14;9.00;;;7.07;;
77430;SDS011;66498;48.564;19.272;2023-06-10T07:43:42;9.20;;;7.55;;
77430;SDS011;66498;48.564;19.272;2023-06-10T07:46:08;7.25;;;6.47;;
77430;SDS011;66498;48.564;19.272;2023-06-10T07:48:34;9.82;;;6.65;;
77430;SDS011;66498;48.564;19.272;2023-06-10T07:50:59;7.65;;;5.88;;
77430;SDS011;66498;48.564;19.272;2023-06-10T07:53:25;8.30;;;6.82;;
77430;SDS011;66498;48.564;19.272;2023-06-10T07:55:51;6.65;;;5.95;;
77430;SDS011;66498;48.564;19.272;2023-06-10T07:58:17;6.93;;;5.10;;
77430;SDS011;66498;48.564;19.272;2023-06-10T08:00:42;7.35;;;5.68;;
77430;SDS011;66498;48.564;19.272;2023-06-10T08:03:08;5.80;;;5.05;;
77430;SDS011;66498;48.564;19.272;2023-06-10T08:05:33;7.28;;;5.50;;
77430;SDS011;66498;48.564;19.272;2023-06-10T08:07:59;5.65;;;5.10;;
77430;SDS011;66498;48.564;19.272;2023-06-10T08:10:24;5.53;;;4.32;;
77430;SDS011;66498;48.564;19.272;2023-06-10T08:12:50;5.20;;;4.43;;
77430;SDS011;66498;48.564;19.272;2023-06-10T08:15:15;6.72;;;4.70;;
77430;SDS011;66498;48.564;19.272;2023-06-10T08:17:46;6.28;;;4.35;;
77430;SDS011;66498;48.564;19.272;2023-06-10T08:20:11;4.68;;;4.18;;
77430;SDS011;66498;48.564;19.272;2023-06-10T08:22:37;6.63;;;3.92;;
77430;SDS011;66498;48.564;19.272;2023-06-10T08:25:03;4.90;;;4.40;;
77430;SDS011;66498;48.564;19.272;2023-06-10T08:27:29;7.15;;;4.50;;
77430;SDS011;66498;48.564;19.272;2023-06-10T08:29:55;8.05;;;4.03;;
77430;SDS011;66498;48.564;19.272;2023-06-10T08:32:20;6.22;;;4.00;;
77430;SDS011;66498;48.564;19.272;2023-06-10T08:34:46;6.45;;;4.30;;
77430;SDS011;66498;48.564;19.272;2023-06-10T08:37:12;4.47;;;3.90;;
77430;SDS011;66498;48.564;19.272;2023-06-10T08:39:37;4.75;;;4.25;;
77430;SDS011;66498;48.564;19.272;2023-06-10T08:44:38;4.55;;;4.10;;
77430;SDS011;66498;48.564;19.272;2023-06-10T08:47:14;4.43;;;4.00;;
77430;SDS011;66498;48.564;19.272;2023-06-10T08:49:44;4.80;;;4.27;;
77430;SDS011;66498;48.564;19.272;2023-06-10T08:52:16;5.10;;;4.50;;
77430;SDS011;66498;48.564;19.272;2023-06-10T08:54:43;5.30;;;4.55;;
77430;SDS011;66498;48.564;19.272;2023-06-10T08:57:12;5.88;;;4.40;;
77430;SDS011;66498;48.564;19.272;2023-06-10T08:59:38;5.35;;;4.80;;
77430;SDS011;66498;48.564;19.272;2023-06-10T09:02:06;5.35;;;4.72;;
77430;SDS011;66498;48.564;19.272;2023-06-10T09:04:34;5.90;;;4.85;;
77430;SDS011;66498;48.564;19.272;2023-06-10T09:07:02;7.32;;;5.00;;
77430;SDS011;66498;48.564;19.272;2023-06-10T09:09:27;7.10;;;5.00;;
77430;SDS011;66498;48.564;19.272;2023-06-10T09:11:55;4.72;;;4.32;;
77430;SDS011;66498;48.564;19.272;2023-06-10T09:14:21;6.18;;;4.40;;
77430;SDS011;66498;48.564;19.272;2023-06-10T09:16:47;5.03;;;4.53;;
77430;SDS011;66498;48.564;19.272;2023-06-10T09:19:29;6.22;;;4.57;;
77430;SDS011;66498;48.564;19.272;2023-06-10T09:21:55;5.15;;;4.35;;
77430;SDS011;66498;48.564;19.272;2023-06-10T09:24:22;4.50;;;4.10;;
77430;SDS011;66498;48.564;19.272;2023-06-10T09:26:48;5.28;;;4.65;;
77430;SDS011;66498;48.564;19.272;2023-06-10T09:29:13;4.78;;;4.38;;
77430;SDS011;66498;48.564;19.272;2023-06-10T09:31:39;5.00;;;4.28;;
77430;SDS011;66498;48.564;19.272;2023-06-10T09:36:33;4.80;;;4.40;;
77430;SDS011;66498;48.564;19.272;2023-06-10T09:39:03;5.25;;;4.75;;
77430;SDS011;66498;48.564;19.272;2023-06-10T09:41:35;4.95;;;4.45;;
77430;SDS011;66498;48.564;19.272;2023-06-10T09:44:12;5.88;;;4.70;;
77430;SDS011;66498;48.564;19.272;2023-06-10T09:46:48;5.78;;;4.38;;
77430;SDS011;66498;48.564;19.272;2023-06-10T09:49:18;5.18;;;4.50;;
77430;SDS011;66498;48.564;19.272;2023-06-10T09:51:51;4.57;;;4.10;;
77430;SDS011;66498;48.564;19.272;2023-06-10T09:54:22;5.30;;;4.18;;
77430;SDS011;66498;48.564;19.272;2023-06-10T09:57:21;4.95;;;4.38;;
77430;SDS011;66498;48.564;19.272;2023-06-10T10:02:19;5.13;;;3.85;;
77430;SDS011;66498;48.564;19.272;2023-06-10T10:04:45;4.95;;;4.30;;
77430;SDS011;66498;48.564;19.272;2023-06-10T10:07:12;6.68;;;4.15;;
77430;SDS011;66498;48.564;19.272;2023-06-10T10:09:39;5.85;;;4.45;;
77430;SDS011;66498;48.564;19.272;2023-06-10T10:12:09;4.20;;;3.80;;
77430;SDS011;66498;48.564;19.272;2023-06-10T10:14:39;4.13;;;3.72;;
77430;SDS011;66498;48.564;19.272;2023-06-10T10:17:09;4.18;;;3.78;;
77430;SDS011;66498;48.564;19.272;2023-06-10T10:19:40;4.00;;;3.60;;
77430;SDS011;66498;48.564;19.272;2023-06-10T10:22:26;4.72;;;4.25;;
77430;SDS011;66498;48.564;19.272;2023-06-10T10:24:56;4.55;;;4.10;;
77430;SDS011;66498;48.564;19.272;2023-06-10T10:27:27;6.50;;;3.83;;
77430;SDS011;66498;48.564;19.272;2023-06-10T10:29:58;5.88;;;3.60;;
77430;SDS011;66498;48.564;19.272;2023-06-10T10:32:32;5.00;;;3.63;;
77430;SDS011;66498;48.564;19.272;2023-06-10T10:37:35;4.18;;;3.25;;
77430;SDS011;66498;48.564;19.272;2023-06-10T10:40:01;4.45;;;3.50;;
77430;SDS011;66498;48.564;19.272;2023-06-10T10:42:28;11.98;;;5.50;;
77430;SDS011;66498;48.564;19.272;2023-06-10T10:44:55;6.50;;;3.88;;
77430;SDS011;66498;48.564;19.272;2023-06-10T10:47:21;3.95;;;2.10;;
77430;SDS011;66498;48.564;19.272;2023-06-10T10:49:48;2.20;;;1.92;;
77430;SDS011;66498;48.564;19.272;2023-06-10T10:52:17;4.80;;;2.03;;
77430;SDS011;66498;48.564;19.272;2023-06-10T10:54:43;3.30;;;2.05;;
77430;SDS011;66498;48.564;19.272;2023-06-10T10:57:12;2.80;;;2.00;;
77430;SDS011;66498;48.564;19.272;2023-06-10T11:02:17;3.13;;;2.20;;
77430;SDS011;66498;48.564;19.272;2023-06-10T11:05:13;4.38;;;2.50;;
77430;SDS011;66498;48.564;19.272;2023-06-10T11:07:40;3.80;;;2.50;;
77430;SDS011;66498;48.564;19.272;2023-06-10T11:10:16;7.55;;;2.90;;
77430;SDS011;66498;48.564;19.272;2023-06-10T11:15:11;3.92;;;2.85;;
77430;SDS011;66498;48.564;19.272;2023-06-10T11:18:06;2.88;;;2.58;;
77430;SDS011;66498;48.564;19.272;2023-06-10T11:28:38;4.28;;;3.70;;
77430;SDS011;66498;48.564;19.272;2023-06-10T11:31:03;5.82;;;4.40;;
77430;SDS011;66498;48.564;19.272;2023-06-10T11:33:29;7.18;;;4.20;;
77430;SDS011;66498;48.564;19.272;2023-06-10T11:35:56;5.75;;;4.47;;
77430;SDS011;66498;48.564;19.272;2023-06-10T11:38:21;5.40;;;4.32;;
77430;SDS011;66498;48.564;19.272;2023-06-10T11:40:51;5.28;;;3.90;;
77430;SDS011;66498;48.564;19.272;2023-06-10T11:43:17;42.08;;;5.88;;
77430;SDS011;66498;48.564;19.272;2023-06-10T11:45:43;18.67;;;5.22;;
77430;SDS011;66498;48.564;19.272;2023-06-10T11:48:09;21.88;;;5.07;;
77430;SDS011;66498;48.564;19.272;2023-06-10T11:50:35;20.38;;;4.80;;
77430;SDS011;66498;48.564;19.272;2023-06-10T11:53:02;4.60;;;3.70;;
77430;SDS011;66498;48.564;19.272;2023-06-10T11:58:15;9.30;;;4.30;;
77430;SDS011;66498;48.564;19.272;2023-06-10T12:00:45;7.70;;;3.88;;
77430;SDS011;66498;48.564;19.272;2023-06-10T12:03:11;6.30;;;4.35;;
77430;SDS011;66498;48.564;19.272;2023-06-10T12:05:39;5.03;;;3.80;;
77430;SDS011;66498;48.564;19.272;2023-06-10T12:08:10;58.30;;;8.93;;
77430;SDS011;66498;48.564;19.272;2023-06-10T12:10:40;14.00;;;4.53;;
77430;SDS011;66498;48.564;19.272;2023-06-10T12:13:08;85.75;;;8.90;;
77430;SDS011;66498;48.564;19.272;2023-06-10T12:15:34;23.95;;;4.63;;
77430;SDS011;66498;48.564;19.272;2023-06-10T12:18:00;4.85;;;3.00;;
77430;SDS011;66498;48.564;19.272;2023-06-10T12:20:30;10.77;;;4.20;;
77430;SDS011;66498;48.564;19.272;2023-06-10T12:23:00;3.42;;;2.20;;
77430;SDS011;66498;48.564;19.272;2023-06-10T12:25:33;23.40;;;4.05;;
77430;SDS011;66498;48.564;19.272;2023-06-10T12:27:59;53.42;;;6.30;;
77430;SDS011;66498;48.564;19.272;2023-06-10T12:30:25;40.85;;;4.90;;
77430;SDS011;66498;48.564;19.272;2023-06-10T12:32:52;12.05;;;3.58;;
77430;SDS011;66498;48.564;19.272;2023-06-10T12:35:19;8.43;;;3.67;;
77430;SDS011;66498;48.564;19.272;2023-06-10T12:40:27;3.75;;;2.75;;
77430;SDS011;66498;48.564;19.272;2023-06-10T12:42:53;4.82;;;3.30;;
77430;SDS011;66498;48.564;19.272;2023-06-10T12:45:30;9.27;;;3.15;;
77430;SDS011;66498;48.564;19.272;2023-06-10T12:48:16;7.28;;;3.05;;
77430;SDS011;66498;48.564;19.272;2023-06-10T12:50:52;9.65;;;3.13;;
77430;SDS011;66498;48.564;19.272;2023-06-10T12:53:20;44.08;;;6.90;;
77430;SDS011;66498;48.564;19.272;2023-06-10T12:55:48;4.30;;;3.00;;
77430;SDS011;66498;48.564;19.272;2023-06-10T12:58:14;4.22;;;2.70;;
77430;SDS011;66498;48.564;19.272;2023-06-10T13:00:40;3.65;;;2.67;;
77430;SDS011;66498;48.564;19.272;2023-06-10T13:03:07;4.03;;;3.47;;
77430;SDS011;66498;48.564;19.272;2023-06-10T13:05:34;5.07;;;3.85;;
77430;SDS011;66498;48.564;19.272;2023-06-10T13:08:05;4.43;;;3.30;;
77430;SDS011;66498;48.564;19.272;2023-06-10T13:10:32;4.47;;;3.53;;
77430;SDS011;66498;48.564;19.272;2023-06-10T13:12:58;3.83;;;3.47;;
77430;SDS011;66498;48.564;19.272;2023-06-10T13:15:24;4.22;;;3.83;;
77430;SDS011;66498;48.564;19.272;2023-06-10T13:17:51;5.45;;;3.60;;
77430;SDS011;66498;48.564;19.272;2023-06-10T13:20:17;5.82;;;3.90;;
77430;SDS011;66498;48.564;19.272;2023-06-10T13:22:44;4.60;;;4.20;;
77430;SDS011;66498;48.564;19.272;2023-06-10T13:25:10;4.75;;;3.55;;
77430;SDS011;66498;48.564;19.272;2023-06-10T13:27:36;5.70;;;4.00;;
77430;SDS011;66498;48.564;19.272;2023-06-10T13:30:06;3.92;;;3.45;;
77430;SDS011;66498;48.564;19.272;2023-06-10T13:32:33;7.22;;;3.42;;
77430;SDS011;66498;48.564;19.272;2023-06-10T13:34:59;6.13;;;3.67;;
77430;SDS011;66498;48.564;19.272;2023-06-10T13:37:25;5.25;;;3.08;;
77430;SDS011;66498;48.564;19.272;2023-06-10T13:39:51;5.78;;;3.70;;
77430;SDS011;66498;48.564;19.272;2023-06-10T13:42:17;3.78;;;3.40;;
77430;SDS011;66498;48.564;19.272;2023-06-10T13:44:43;4.38;;;3.47;;
77430;SDS011;66498;48.564;19.272;2023-06-10T13:47:09;4.95;;;3.60;;
77430;SDS011;66498;48.564;19.272;2023-06-10T13:49:35;5.00;;;3.65;;
77430;SDS011;66498;48.564;19.272;2023-06-10T13:52:01;3.97;;;3.13;;
77430;SDS011;66498;48.564;19.272;2023-06-10T13:54:28;3.85;;;3.55;;
77430;SDS011;66498;48.564;19.272;2023-06-10T13:56:54;7.22;;;3.63;;
77430;SDS011;66498;48.564;19.272;2023-06-10T13:59:19;3.47;;;3.03;;
77430;SDS011;66498;48.564;19.272;2023-06-10T14:01:46;3.95;;;3.28;;
77430;SDS011;66498;48.564;19.272;2023-06-10T14:04:12;185.10;;;9.70;;
77430;SDS011;66498;48.564;19.272;2023-06-10T14:06:38;10.75;;;3.60;;
77430;SDS011;66498;48.564;19.272;2023-06-10T14:09:03;4.25;;;2.90;;
77430;SDS011;66498;48.564;19.272;2023-06-10T14:11:29;4.68;;;2.90;;
77430;SDS011;66498;48.564;19.272;2023-06-10T14:13:55;3.67;;;3.10;;
77430;SDS011;66498;48.564;19.272;2023-06-10T14:16:24;3.47;;;3.13;;
77430;SDS011;66498;48.564;19.272;2023-06-10T14:18:49;4.40;;;3.63;;
77430;SDS011;66498;48.564;19.272;2023-06-10T14:21:18;5.38;;;3.50;;
77430;SDS011;66498;48.564;19.272;2023-06-10T14:23:44;9.07;;;3.60;;
77430;SDS011;66498;48.564;19.272;2023-06-10T14:26:10;7.80;;;3.38;;
77430;SDS011;66498;48.564;19.272;2023-06-10T14:28:36;5.47;;;3.50;;
77430;SDS011;66498;48.564;19.272;2023-06-10T14:31:01;6.13;;;3.33;;
77430;SDS011;66498;48.564;19.272;2023-06-10T14:33:27;5.78;;;3.30;;
77430;SDS011;66498;48.564;19.272;2023-06-10T14:35:53;3.58;;;3.15;;
77430;SDS011;66498;48.564;19.272;2023-06-10T14:38:19;4.43;;;3.28;;
77430;SDS011;66498;48.564;19.272;2023-06-10T14:40:44;4.90;;;3.38;;
77430;SDS011;66498;48.564;19.272;2023-06-10T14:43:10;6.95;;;3.20;;
77430;SDS011;66498;48.564;19.272;2023-06-10T14:45:36;2.97;;;2.30;;
77430;SDS011;66498;48.564;19.272;2023-06-10T14:48:02;5.53;;;2.80;;
77430;SDS011;66498;48.564;19.272;2023-06-10T14:50:29;4.25;;;2.80;;
77430;SDS011;66498;48.564;19.272;2023-06-10T14:52:54;3.25;;;2.20;;
77430;SDS011;66498;48.564;19.272;2023-06-10T14:55:20;3.88;;;2.22;;
77430;SDS011;66498;48.564;19.272;2023-06-10T14:57:47;2.40;;;2.20;;
77430;SDS011;66498;48.564;19.272;2023-06-10T15:00:13;2.45;;;2.17;;
77430;SDS011;66498;48.564;19.272;2023-06-10T15:02:41;3.60;;;2.60;;
77430;SDS011;66498;48.564;19.272;2023-06-10T15:05:07;4.78;;;2.70;;
77430;SDS011;66498;48.564;19.272;2023-06-10T15:07:33;2.88;;;2.50;;
77430;SDS011;66498;48.564;19.272;2023-06-10T15:09:59;5.10;;;2.80;;
77430;SDS011;66498;48.564;19.272;2023-06-10T15:12:25;3.25;;;2.70;;
77430;SDS011;66498;48.564;19.272;2023-06-10T15:14:50;4.63;;;3.00;;
77430;SDS011;66498;48.564;19.272;2023-06-10T15:17:16;3.70;;;2.55;;
77430;SDS011;66498;48.564;19.272;2023-06-10T15:19:42;71.05;;;4.65;;
77430;SDS011;66498;48.564;19.272;2023-06-10T15:22:07;5.72;;;2.55;;